sensor_id;sensor_type;location;lat;lon;timestamp;P1;durP1;ratioP1;P2;durP2;ratioP2
11986;SDS011;6053;51.382;6.768;2023-09-12T00:02:03;0.90;;;0.90;;
11986;SDS011;6053;51.382;6.768;2023-09-12T00:04:32;1.20;;;1.10;;
11986;SDS011;6053;51.382;6.768;2023-09-12T00:07:00;1.17;;;1.08;;
11986;SDS011;6053;51.382;6.768;2023-09-12T00:09:29;1.10;;;1.00;;
11986;SDS011;6053;51.382;6.768;2023-09-12T00:11:57;1.65;;;1.10;;
11986;SDS011;6053;51.382;6.768;2023-09-12T00:14:26;1.73;;;1.40;;
11986;SDS011;6053;51.382;6.768;2023-09-12T00:16:55;1.60;;;1.40;;
11986;SDS011;6053;51.382;6.768;2023-09-12T00:19:24;1.10;;;1.10;;
11986;SDS011;6053;51.382;6.768;2023-09-12T00:21:52;3.70;;;2.75;;
11986;SDS011;6053;51.382;6.768;2023-09-12T00:24:20;2.50;;;2.30;;
11986;SDS011;6053;51.382;6.768;2023-09-12T00:26:51;5.68;;;3.15;;
11986;SDS011;6053;51.382;6.768;2023-09-12T00:29:19;5.93;;;3.42;;
11986;SDS011;6053;51.382;6.768;2023-09-12T00:31:48;6.47;;;4.30;;
11986;SDS011;6053;51.382;6.768;2023-09-12T00:34:18;9.48;;;4.85;;
11986;SDS011;6053;51.382;6.768;2023-09-12T00:36:46;7.13;;;4.65;;
11986;SDS011;6053;51.382;6.768;2023-09-12T00:39:20;2.30;;;1.70;;
11986;SDS011;6053;51.382;6.768;2023-09-12T00:41:49;4.15;;;2.70;;
11986;SDS011;6053;51.382;6.768;2023-09-12T00:44:17;1.80;;;1.70;;
11986;SDS011;6053;51.382;6.768;2023-09-12T00:46:48;5.80;;;3.13;;
11986;SDS011;6053;51.382;6.768;2023-09-12T00:49:27;1.55;;;1.45;;
11986;SDS011;6053;51.382;6.768;2023-09-12T00:51:56;3.58;;;2.70;;
11986;SDS011;6053;51.382;6.768;2023-09-12T00:54:25;3.30;;;2.00;;
11986;SDS011;6053;51.382;6.768;2023-09-12T00:56:57;3.83;;;2.47;;
11986;SDS011;6053;51.382;6.768;2023-09-12T00:59:26;4.88;;;2.80;;
11986;SDS011;6053;51.382;6.768;2023-09-12T01:01:57;5.40;;;2.83;;
11986;SDS011;6053;51.382;6.768;2023-09-12T01:04:30;6.07;;;3.85;;
11986;SDS011;6053;51.382;6.768;2023-09-12T01:07:02;3.10;;;2.35;;
11986;SDS011;6053;51.382;6.768;2023-09-12T01:09:31;3.43;;;2.20;;
11986;SDS011;6053;51.382;6.768;2023-09-12T01:12:00;3.45;;;2.13;;
11986;SDS011;6053;51.382;6.768;2023-09-12T01:14:29;3.08;;;1.98;;
11986;SDS011;6053;51.382;6.768;2023-09-12T01:16:58;1.77;;;1.50;;
11986;SDS011;6053;51.382;6.768;2023-09-12T01:19:28;5.03;;;3.03;;
11986;SDS011;6053;51.382;6.768;2023-09-12T01:22:10;5.10;;;3.58;;
11986;SDS011;6053;51.382;6.768;2023-09-12T01:25:39;5.35;;;3.10;;
11986;SDS011;6053;51.382;6.768;2023-09-12T01:28:36;3.50;;;2.65;;
11986;SDS011;6053;51.382;6.768;2023-09-12T01:31:10;2.40;;;2.10;;
11986;SDS011;6053;51.382;6.768;2023-09-12T01:33:40;1.50;;;1.40;;
11986;SDS011;6053;51.382;6.768;2023-09-12T01:36:08;1.92;;;1.67;;
11986;SDS011;6053;51.382;6.768;2023-09-12T01:38:37;3.63;;;2.92;;
11986;SDS011;6053;51.382;6.768;2023-09-12T01:41:06;1.50;;;1.20;;
11986;SDS011;6053;51.382;6.768;2023-09-12T01:43:37;1.40;;;1.30;;
11986;SDS011;6053;51.382;6.768;2023-09-12T01:46:06;1.67;;;1.30;;
11986;SDS011;6053;51.382;6.768;2023-09-12T01:48:38;4.63;;;3.17;;
11986;SDS011;6053;51.382;6.768;2023-09-12T01:51:09;2.75;;;2.42;;
11986;SDS011;6053;51.382;6.768;2023-09-12T01:53:38;2.15;;;1.80;;
11986;SDS011;6053;51.382;6.768;2023-09-12T01:56:07;3.50;;;2.10;;
11986;SDS011;6053;51.382;6.768;2023-09-12T01:58:40;1.30;;;1.20;;
11986;SDS011;6053;51.382;6.768;2023-09-12T02:01:09;1.77;;;1.60;;
11986;SDS011;6053;51.382;6.768;2023-09-12T02:03:38;1.20;;;1.20;;
11986;SDS011;6053;51.382;6.768;2023-09-12T02:06:07;2.05;;;1.80;;
11986;SDS011;6053;51.382;6.768;2023-09-12T02:08:35;4.28;;;3.15;;
11986;SDS011;6053;51.382;6.768;2023-09-12T02:11:04;1.60;;;1.50;;
11986;SDS011;6053;51.382;6.768;2023-09-12T02:13:32;1.25;;;1.17;;
11986;SDS011;6053;51.382;6.768;2023-09-12T02:16:05;1.33;;;1.23;;
11986;SDS011;6053;51.382;6.768;2023-09-12T02:18:33;2.95;;;2.08;;
11986;SDS011;6053;51.382;6.768;2023-09-12T02:21:14;3.97;;;2.65;;
11986;SDS011;6053;51.382;6.768;2023-09-12T02:23:48;2.20;;;1.60;;
11986;SDS011;6053;51.382;6.768;2023-09-12T02:26:18;1.10;;;0.90;;
11986;SDS011;6053;51.382;6.768;2023-09-12T02:28:49;1.20;;;1.10;;
11986;SDS011;6053;51.382;6.768;2023-09-12T02:31:19;1.10;;;1.10;;
11986;SDS011;6053;51.382;6.768;2023-09-12T02:33:47;1.50;;;1.40;;
11986;SDS011;6053;51.382;6.768;2023-09-12T02:36:23;0.90;;;0.90;;
11986;SDS011;6053;51.382;6.768;2023-09-12T02:38:54;3.60;;;2.10;;
11986;SDS011;6053;51.382;6.768;2023-09-12T02:41:23;2.30;;;2.10;;
11986;SDS011;6053;51.382;6.768;2023-09-12T02:43:51;2.77;;;2.10;;
11986;SDS011;6053;51.382;6.768;2023-09-12T02:46:26;6.22;;;4.22;;
11986;SDS011;6053;51.382;6.768;2023-09-12T02:48:55;2.92;;;2.60;;
11986;SDS011;6053;51.382;6.768;2023-09-12T02:51:31;5.18;;;3.85;;
11986;SDS011;6053;51.382;6.768;2023-09-12T02:53:59;3.55;;;3.25;;
11986;SDS011;6053;51.382;6.768;2023-09-12T02:56:28;2.30;;;1.60;;
11986;SDS011;6053;51.382;6.768;2023-09-12T02:58:57;3.65;;;2.78;;
11986;SDS011;6053;51.382;6.768;2023-09-12T03:01:29;2.10;;;1.88;;
11986;SDS011;6053;51.382;6.768;2023-09-12T03:03:58;1.33;;;1.23;;
11986;SDS011;6053;51.382;6.768;2023-09-12T03:06:28;1.20;;;1.20;;
11986;SDS011;6053;51.382;6.768;2023-09-12T03:08:57;1.30;;;1.20;;
11986;SDS011;6053;51.382;6.768;2023-09-12T03:11:25;3.38;;;2.83;;
11986;SDS011;6053;51.382;6.768;2023-09-12T03:13:54;1.80;;;1.70;;
11986;SDS011;6053;51.382;6.768;2023-09-12T03:16:23;3.60;;;2.80;;
11986;SDS011;6053;51.382;6.768;2023-09-12T03:18:58;1.17;;;1.00;;
11986;SDS011;6053;51.382;6.768;2023-09-12T03:21:27;1.85;;;1.50;;
11986;SDS011;6053;51.382;6.768;2023-09-12T03:23:56;1.45;;;1.35;;
11986;SDS011;6053;51.382;6.768;2023-09-12T03:26:24;1.20;;;1.10;;
11986;SDS011;6053;51.382;6.768;2023-09-12T03:29:00;1.38;;;1.30;;
11986;SDS011;6053;51.382;6.768;2023-09-12T03:31:28;1.17;;;1.10;;
11986;SDS011;6053;51.382;6.768;2023-09-12T03:33:59;5.05;;;3.17;;
11986;SDS011;6053;51.382;6.768;2023-09-12T03:36:30;4.20;;;3.10;;
11986;SDS011;6053;51.382;6.768;2023-09-12T03:38:58;2.43;;;2.03;;
11986;SDS011;6053;51.382;6.768;2023-09-12T03:41:27;2.47;;;2.27;;
11986;SDS011;6053;51.382;6.768;2023-09-12T03:43:55;1.98;;;1.75;;
11986;SDS011;6053;51.382;6.768;2023-09-12T03:46:24;5.43;;;3.87;;
11986;SDS011;6053;51.382;6.768;2023-09-12T03:48:56;2.17;;;1.93;;
11986;SDS011;6053;51.382;6.768;2023-09-12T03:51:29;4.65;;;3.15;;
11986;SDS011;6053;51.382;6.768;2023-09-12T03:53:58;1.83;;;1.73;;
11986;SDS011;6053;51.382;6.768;2023-09-12T03:56:26;3.35;;;3.05;;
11986;SDS011;6053;51.382;6.768;2023-09-12T03:58:55;3.45;;;2.30;;
11986;SDS011;6053;51.382;6.768;2023-09-12T04:01:25;5.00;;;3.05;;
11986;SDS011;6053;51.382;6.768;2023-09-12T04:03:56;5.25;;;4.75;;
11986;SDS011;6053;51.382;6.768;2023-09-12T04:06:30;5.38;;;4.35;;
11986;SDS011;6053;51.382;6.768;2023-09-12T04:09:01;1.60;;;1.50;;
11986;SDS011;6053;51.382;6.768;2023-09-12T04:11:39;2.90;;;2.35;;
11986;SDS011;6053;51.382;6.768;2023-09-12T04:14:13;2.83;;;2.63;;
11986;SDS011;6053;51.382;6.768;2023-09-12T04:16:42;6.00;;;5.30;;
11986;SDS011;6053;51.382;6.768;2023-09-12T04:19:10;2.13;;;1.92;;
11986;SDS011;6053;51.382;6.768;2023-09-12T04:21:40;1.55;;;1.45;;
11986;SDS011;6053;51.382;6.768;2023-09-12T04:24:09;1.40;;;1.30;;
11986;SDS011;6053;51.382;6.768;2023-09-12T04:26:37;1.40;;;1.30;;
11986;SDS011;6053;51.382;6.768;2023-09-12T04:29:12;5.00;;;4.28;;
11986;SDS011;6053;51.382;6.768;2023-09-12T04:31:40;3.15;;;2.95;;
11986;SDS011;6053;51.382;6.768;2023-09-12T04:34:08;1.23;;;1.23;;
11986;SDS011;6053;51.382;6.768;2023-09-12T04:36:37;1.47;;;1.30;;
11986;SDS011;6053;51.382;6.768;2023-09-12T04:39:09;1.50;;;1.40;;
11986;SDS011;6053;51.382;6.768;2023-09-12T04:41:40;1.05;;;1.02;;
11986;SDS011;6053;51.382;6.768;2023-09-12T04:44:08;1.38;;;1.30;;
11986;SDS011;6053;51.382;6.768;2023-09-12T04:46:39;1.40;;;1.30;;
11986;SDS011;6053;51.382;6.768;2023-09-12T04:49:09;1.15;;;1.15;;
11986;SDS011;6053;51.382;6.768;2023-09-12T04:51:41;1.45;;;1.35;;
11986;SDS011;6053;51.382;6.768;2023-09-12T04:54:13;1.13;;;1.13;;
11986;SDS011;6053;51.382;6.768;2023-09-12T04:56:41;1.10;;;1.10;;
11986;SDS011;6053;51.382;6.768;2023-09-12T04:59:12;1.27;;;1.23;;
11986;SDS011;6053;51.382;6.768;2023-09-12T05:01:41;1.10;;;1.10;;
11986;SDS011;6053;51.382;6.768;2023-09-12T05:04:12;1.08;;;1.08;;
11986;SDS011;6053;51.382;6.768;2023-09-12T05:06:40;1.40;;;1.30;;
11986;SDS011;6053;51.382;6.768;2023-09-12T05:09:09;1.27;;;1.20;;
11986;SDS011;6053;51.382;6.768;2023-09-12T05:11:38;1.63;;;1.52;;
11986;SDS011;6053;51.382;6.768;2023-09-12T05:14:10;2.30;;;2.10;;
11986;SDS011;6053;51.382;6.768;2023-09-12T05:16:38;1.30;;;1.20;;
11986;SDS011;6053;51.382;6.768;2023-09-12T05:19:07;1.38;;;1.33;;
11986;SDS011;6053;51.382;6.768;2023-09-12T05:21:38;1.55;;;1.45;;
11986;SDS011;6053;51.382;6.768;2023-09-12T05:24:13;1.30;;;1.30;;
11986;SDS011;6053;51.382;6.768;2023-09-12T05:26:42;4.10;;;2.80;;
11986;SDS011;6053;51.382;6.768;2023-09-12T05:29:20;1.85;;;1.73;;
11986;SDS011;6053;51.382;6.768;2023-09-12T05:31:48;2.20;;;1.70;;
11986;SDS011;6053;51.382;6.768;2023-09-12T05:34:17;1.70;;;1.60;;
11986;SDS011;6053;51.382;6.768;2023-09-12T05:36:45;3.70;;;2.50;;
11986;SDS011;6053;51.382;6.768;2023-09-12T05:39:16;2.72;;;1.88;;
11986;SDS011;6053;51.382;6.768;2023-09-12T05:41:46;3.75;;;2.95;;
11986;SDS011;6053;51.382;6.768;2023-09-12T05:44:16;1.77;;;1.67;;
11986;SDS011;6053;51.382;6.768;2023-09-12T05:46:45;4.53;;;3.38;;
11986;SDS011;6053;51.382;6.768;2023-09-12T05:49:20;1.20;;;1.20;;
11986;SDS011;6053;51.382;6.768;2023-09-12T05:51:51;2.60;;;2.38;;
11986;SDS011;6053;51.382;6.768;2023-09-12T05:54:19;1.67;;;1.57;;
11986;SDS011;6053;51.382;6.768;2023-09-12T05:56:49;1.63;;;1.50;;
11986;SDS011;6053;51.382;6.768;2023-09-12T05:59:19;2.37;;;2.17;;
11986;SDS011;6053;51.382;6.768;2023-09-12T06:02:00;5.57;;;4.30;;
11986;SDS011;6053;51.382;6.768;2023-09-12T06:04:31;4.90;;;4.27;;
11986;SDS011;6053;51.382;6.768;2023-09-12T06:07:02;5.57;;;4.88;;
11986;SDS011;6053;51.382;6.768;2023-09-12T06:09:31;11.38;;;5.80;;
11986;SDS011;6053;51.382;6.768;2023-09-12T06:12:01;5.55;;;4.15;;
11986;SDS011;6053;51.382;6.768;2023-09-12T06:14:30;5.57;;;2.80;;
11986;SDS011;6053;51.382;6.768;2023-09-12T06:17:02;2.83;;;2.05;;
11986;SDS011;6053;51.382;6.768;2023-09-12T06:19:33;3.27;;;1.57;;
11986;SDS011;6053;51.382;6.768;2023-09-12T06:22:02;3.10;;;1.40;;
11986;SDS011;6053;51.382;6.768;2023-09-12T06:24:31;2.72;;;0.93;;
11986;SDS011;6053;51.382;6.768;2023-09-12T06:26:59;1.20;;;0.80;;
11986;SDS011;6053;51.382;6.768;2023-09-12T06:29:35;1.13;;;0.80;;
11986;SDS011;6053;51.382;6.768;2023-09-12T06:32:04;1.20;;;0.70;;
11986;SDS011;6053;51.382;6.768;2023-09-12T06:34:33;0.70;;;0.50;;
11986;SDS011;6053;51.382;6.768;2023-09-12T06:37:08;0.70;;;0.60;;
11986;SDS011;6053;51.382;6.768;2023-09-12T06:39:43;2.00;;;0.80;;
11986;SDS011;6053;51.382;6.768;2023-09-12T06:42:16;0.43;;;0.43;;
11986;SDS011;6053;51.382;6.768;2023-09-12T06:44:45;1.05;;;0.47;;
11986;SDS011;6053;51.382;6.768;2023-09-12T06:47:29;0.70;;;0.40;;
11986;SDS011;6053;51.382;6.768;2023-09-12T06:50:07;1.65;;;0.35;;
11986;SDS011;6053;51.382;6.768;2023-09-12T06:52:40;0.30;;;0.30;;
11986;SDS011;6053;51.382;6.768;2023-09-12T06:55:09;0.20;;;0.20;;
11986;SDS011;6053;51.382;6.768;2023-09-12T06:57:46;2.10;;;0.80;;
11986;SDS011;6053;51.382;6.768;2023-09-12T07:00:15;0.70;;;0.40;;
11986;SDS011;6053;51.382;6.768;2023-09-12T07:02:50;0.60;;;0.30;;
11986;SDS011;6053;51.382;6.768;2023-09-12T07:05:21;0.37;;;0.30;;
11986;SDS011;6053;51.382;6.768;2023-09-12T07:07:56;0.50;;;0.40;;
11986;SDS011;6053;51.382;6.768;2023-09-12T07:10:24;0.35;;;0.35;;
11986;SDS011;6053;51.382;6.768;2023-09-12T07:12:58;0.85;;;0.40;;
11986;SDS011;6053;51.382;6.768;2023-09-12T07:15:29;0.52;;;0.50;;
11986;SDS011;6053;51.382;6.768;2023-09-12T07:18:05;0.35;;;0.35;;
11986;SDS011;6053;51.382;6.768;2023-09-12T07:20:36;0.57;;;0.40;;
11986;SDS011;6053;51.382;6.768;2023-09-12T07:23:05;0.50;;;0.47;;
11986;SDS011;6053;51.382;6.768;2023-09-12T07:25:40;0.50;;;0.50;;
11986;SDS011;6053;51.382;6.768;2023-09-12T07:28:16;0.70;;;0.50;;
11986;SDS011;6053;51.382;6.768;2023-09-12T07:30:45;0.40;;;0.40;;
11986;SDS011;6053;51.382;6.768;2023-09-12T07:33:18;0.30;;;0.30;;
11986;SDS011;6053;51.382;6.768;2023-09-12T07:35:47;0.75;;;0.50;;
11986;SDS011;6053;51.382;6.768;2023-09-12T07:38:32;0.60;;;0.40;;
11986;SDS011;6053;51.382;6.768;2023-09-12T07:41:07;0.65;;;0.50;;
11986;SDS011;6053;51.382;6.768;2023-09-12T07:43:37;0.70;;;0.70;;
11986;SDS011;6053;51.382;6.768;2023-09-12T07:46:07;1.55;;;0.90;;
11986;SDS011;6053;51.382;6.768;2023-09-12T07:48:44;0.32;;;0.32;;
11986;SDS011;6053;51.382;6.768;2023-09-12T07:51:14;0.53;;;0.53;;
11986;SDS011;6053;51.382;6.768;2023-09-12T07:53:44;1.00;;;0.80;;
11986;SDS011;6053;51.382;6.768;2023-09-12T07:56:25;1.70;;;1.10;;
11986;SDS011;6053;51.382;6.768;2023-09-12T07:58:56;0.40;;;0.40;;
11986;SDS011;6053;51.382;6.768;2023-09-12T08:01:25;1.07;;;0.50;;
11986;SDS011;6053;51.382;6.768;2023-09-12T08:03:54;2.40;;;0.82;;
11986;SDS011;6053;51.382;6.768;2023-09-12T08:06:23;0.40;;;0.40;;
11986;SDS011;6053;51.382;6.768;2023-09-12T08:08:52;0.60;;;0.55;;
11986;SDS011;6053;51.382;6.768;2023-09-12T08:11:26;0.88;;;0.60;;
11986;SDS011;6053;51.382;6.768;2023-09-12T08:13:57;2.67;;;0.80;;
11986;SDS011;6053;51.382;6.768;2023-09-12T08:16:28;3.42;;;1.00;;
11986;SDS011;6053;51.382;6.768;2023-09-12T08:18:57;3.15;;;0.80;;
11986;SDS011;6053;51.382;6.768;2023-09-12T08:21:29;0.63;;;0.63;;
11986;SDS011;6053;51.382;6.768;2023-09-12T08:23:58;0.93;;;0.40;;
11986;SDS011;6053;51.382;6.768;2023-09-12T08:26:29;0.38;;;0.38;;
11986;SDS011;6053;51.382;6.768;2023-09-12T08:29:13;0.73;;;0.52;;
11986;SDS011;6053;51.382;6.768;2023-09-12T08:31:42;1.23;;;0.57;;
11986;SDS011;6053;51.382;6.768;2023-09-12T08:34:11;0.60;;;0.60;;
11986;SDS011;6053;51.382;6.768;2023-09-12T08:36:42;1.35;;;0.77;;
11986;SDS011;6053;51.382;6.768;2023-09-12T08:39:12;1.42;;;0.50;;
11986;SDS011;6053;51.382;6.768;2023-09-12T08:41:45;1.20;;;0.50;;
11986;SDS011;6053;51.382;6.768;2023-09-12T08:44:18;0.70;;;0.60;;
11986;SDS011;6053;51.382;6.768;2023-09-12T08:46:48;0.50;;;0.20;;
11986;SDS011;6053;51.382;6.768;2023-09-12T08:49:29;0.50;;;0.50;;
11986;SDS011;6053;51.382;6.768;2023-09-12T08:52:00;0.52;;;0.35;;
11986;SDS011;6053;51.382;6.768;2023-09-12T08:54:30;0.90;;;0.82;;
11986;SDS011;6053;51.382;6.768;2023-09-12T08:56:59;0.50;;;0.40;;
11986;SDS011;6053;51.382;6.768;2023-09-12T08:59:35;1.60;;;0.73;;
11986;SDS011;6053;51.382;6.768;2023-09-12T09:02:07;1.50;;;1.27;;
11986;SDS011;6053;51.382;6.768;2023-09-12T09:04:38;2.42;;;1.70;;
11986;SDS011;6053;51.382;6.768;2023-09-12T09:07:07;2.17;;;1.48;;
11986;SDS011;6053;51.382;6.768;2023-09-12T09:09:39;3.53;;;2.83;;
11986;SDS011;6053;51.382;6.768;2023-09-12T09:12:08;1.58;;;1.48;;
11986;SDS011;6053;51.382;6.768;2023-09-12T09:14:38;4.50;;;2.50;;
11986;SDS011;6053;51.382;6.768;2023-09-12T09:17:12;6.15;;;3.20;;
11986;SDS011;6053;51.382;6.768;2023-09-12T09:19:59;7.32;;;4.60;;
11986;SDS011;6053;51.382;6.768;2023-09-12T09:22:27;13.27;;;7.85;;
11986;SDS011;6053;51.382;6.768;2023-09-12T09:25:09;12.77;;;5.75;;
11986;SDS011;6053;51.382;6.768;2023-09-12T09:27:39;7.80;;;4.88;;
11986;SDS011;6053;51.382;6.768;2023-09-12T09:30:18;6.07;;;3.78;;
11986;SDS011;6053;51.382;6.768;2023-09-12T09:33:07;9.18;;;4.75;;
11986;SDS011;6053;51.382;6.768;2023-09-12T09:35:40;10.77;;;5.95;;
11986;SDS011;6053;51.382;6.768;2023-09-12T09:38:12;7.03;;;5.07;;
11986;SDS011;6053;51.382;6.768;2023-09-12T09:40:43;10.75;;;5.85;;
11986;SDS011;6053;51.382;6.768;2023-09-12T09:43:19;6.47;;;4.00;;
11986;SDS011;6053;51.382;6.768;2023-09-12T09:45:49;9.77;;;4.82;;
11986;SDS011;6053;51.382;6.768;2023-09-12T09:48:18;9.50;;;5.77;;
11986;SDS011;6053;51.382;6.768;2023-09-12T09:50:47;9.67;;;5.37;;
11986;SDS011;6053;51.382;6.768;2023-09-12T09:53:16;6.88;;;4.05;;
11986;SDS011;6053;51.382;6.768;2023-09-12T09:56:07;4.13;;;3.30;;
11986;SDS011;6053;51.382;6.768;2023-09-12T09:58:41;7.05;;;5.22;;
11986;SDS011;6053;51.382;6.768;2023-09-12T10:01:17;7.95;;;5.40;;
11986;SDS011;6053;51.382;6.768;2023-09-12T10:03:48;8.05;;;5.75;;
11986;SDS011;6053;51.382;6.768;2023-09-12T10:06:19;3.95;;;3.20;;
11986;SDS011;6053;51.382;6.768;2023-09-12T10:08:49;11.07;;;7.82;;
11986;SDS011;6053;51.382;6.768;2023-09-12T10:11:23;5.45;;;3.55;;
11986;SDS011;6053;51.382;6.768;2023-09-12T10:14:05;5.70;;;4.17;;
11986;SDS011;6053;51.382;6.768;2023-09-12T10:16:38;10.57;;;7.18;;
11986;SDS011;6053;51.382;6.768;2023-09-12T10:19:13;11.57;;;8.60;;
11986;SDS011;6053;51.382;6.768;2023-09-12T10:21:49;6.90;;;4.85;;
11986;SDS011;6053;51.382;6.768;2023-09-12T10:24:28;15.95;;;9.40;;
11986;SDS011;6053;51.382;6.768;2023-09-12T10:27:09;11.50;;;8.02;;
11986;SDS011;6053;51.382;6.768;2023-09-12T10:29:39;6.45;;;5.68;;
11986;SDS011;6053;51.382;6.768;2023-09-12T10:32:15;13.03;;;7.97;;
11986;SDS011;6053;51.382;6.768;2023-09-12T10:34:49;11.63;;;7.63;;
11986;SDS011;6053;51.382;6.768;2023-09-12T10:37:19;6.15;;;5.57;;
11986;SDS011;6053;51.382;6.768;2023-09-12T10:39:56;10.95;;;5.68;;
11986;SDS011;6053;51.382;6.768;2023-09-12T10:42:27;6.50;;;4.80;;
11986;SDS011;6053;51.382;6.768;2023-09-12T10:44:56;6.43;;;4.95;;
11986;SDS011;6053;51.382;6.768;2023-09-12T10:47:31;8.10;;;4.93;;
11986;SDS011;6053;51.382;6.768;2023-09-12T10:49:59;10.07;;;5.40;;
11986;SDS011;6053;51.382;6.768;2023-09-12T10:52:31;5.30;;;4.07;;
11986;SDS011;6053;51.382;6.768;2023-09-12T10:55:15;6.68;;;4.13;;
11986;SDS011;6053;51.382;6.768;2023-09-12T10:58:01;7.35;;;4.72;;
11986;SDS011;6053;51.382;6.768;2023-09-12T11:00:30;5.95;;;4.70;;
11986;SDS011;6053;51.382;6.768;2023-09-12T11:06:19;7.65;;;4.35;;
11986;SDS011;6053;51.382;6.768;2023-09-12T11:11:49;3.70;;;3.40;;
11986;SDS011;6053;51.382;6.768;2023-09-12T11:14:24;3.15;;;2.60;;
11986;SDS011;6053;51.382;6.768;2023-09-12T11:19:52;3.70;;;2.53;;
11986;SDS011;6053;51.382;6.768;2023-09-12T11:22:21;2.80;;;2.45;;
11986;SDS011;6053;51.382;6.768;2023-09-12T11:24:51;1.85;;;1.75;;
11986;SDS011;6053;51.382;6.768;2023-09-12T11:27:30;4.60;;;2.22;;
11986;SDS011;6053;51.382;6.768;2023-09-12T11:30:03;2.23;;;2.03;;
11986;SDS011;6053;51.382;6.768;2023-09-12T11:32:41;2.85;;;2.20;;
11986;SDS011;6053;51.382;6.768;2023-09-12T11:35:21;4.37;;;2.17;;
11986;SDS011;6053;51.382;6.768;2023-09-12T11:37:51;2.35;;;1.52;;
11986;SDS011;6053;51.382;6.768;2023-09-12T11:40:23;2.53;;;1.95;;
11986;SDS011;6053;51.382;6.768;2023-09-12T11:42:55;1.40;;;1.30;;
11986;SDS011;6053;51.382;6.768;2023-09-12T11:45:26;3.67;;;1.50;;
11986;SDS011;6053;51.382;6.768;2023-09-12T11:47:55;2.30;;;1.90;;
11986;SDS011;6053;51.382;6.768;2023-09-12T11:53:19;2.83;;;1.70;;
11986;SDS011;6053;51.382;6.768;2023-09-12T11:55:52;1.08;;;0.88;;
11986;SDS011;6053;51.382;6.768;2023-09-12T11:58:24;1.70;;;1.60;;
11986;SDS011;6053;51.382;6.768;2023-09-12T12:00:57;1.70;;;1.48;;
11986;SDS011;6053;51.382;6.768;2023-09-12T12:03:27;1.63;;;1.38;;
11986;SDS011;6053;51.382;6.768;2023-09-12T12:05:57;2.70;;;1.80;;
11986;SDS011;6053;51.382;6.768;2023-09-12T12:08:26;1.05;;;1.05;;
11986;SDS011;6053;51.382;6.768;2023-09-12T12:11:02;1.52;;;1.42;;
11986;SDS011;6053;51.382;6.768;2023-09-12T12:13:33;1.80;;;1.30;;
11986;SDS011;6053;51.382;6.768;2023-09-12T12:16:13;2.25;;;1.50;;
11986;SDS011;6053;51.382;6.768;2023-09-12T12:18:45;0.75;;;0.75;;
11986;SDS011;6053;51.382;6.768;2023-09-12T12:21:15;2.33;;;1.50;;
11986;SDS011;6053;51.382;6.768;2023-09-12T12:23:46;1.55;;;1.45;;
11986;SDS011;6053;51.382;6.768;2023-09-12T12:26:30;3.20;;;1.50;;
11986;SDS011;6053;51.382;6.768;2023-09-12T12:28:59;2.80;;;1.17;;
11986;SDS011;6053;51.382;6.768;2023-09-12T12:31:28;2.38;;;1.60;;
11986;SDS011;6053;51.382;6.768;2023-09-12T12:33:59;1.50;;;1.40;;
11986;SDS011;6053;51.382;6.768;2023-09-12T12:36:48;1.30;;;1.23;;
11986;SDS011;6053;51.382;6.768;2023-09-12T12:39:24;1.80;;;1.27;;
11986;SDS011;6053;51.382;6.768;2023-09-12T12:42:00;1.70;;;1.40;;
11986;SDS011;6053;51.382;6.768;2023-09-12T12:44:33;1.48;;;1.40;;
11986;SDS011;6053;51.382;6.768;2023-09-12T12:47:09;4.30;;;1.60;;
11986;SDS011;6053;51.382;6.768;2023-09-12T12:49:41;1.80;;;1.70;;
11986;SDS011;6053;51.382;6.768;2023-09-12T12:52:20;2.95;;;1.75;;
11986;SDS011;6053;51.382;6.768;2023-09-12T12:55:02;2.63;;;1.60;;
11986;SDS011;6053;51.382;6.768;2023-09-12T12:57:37;1.45;;;1.20;;
11986;SDS011;6053;51.382;6.768;2023-09-12T13:00:06;2.30;;;1.77;;
11986;SDS011;6053;51.382;6.768;2023-09-12T13:02:40;2.43;;;1.90;;
11986;SDS011;6053;51.382;6.768;2023-09-12T13:05:19;2.47;;;1.90;;
11986;SDS011;6053;51.382;6.768;2023-09-12T13:07:53;4.95;;;2.58;;
11986;SDS011;6053;51.382;6.768;2023-09-12T13:10:22;3.45;;;2.40;;
11986;SDS011;6053;51.382;6.768;2023-09-12T13:12:53;2.60;;;2.08;;
11986;SDS011;6053;51.382;6.768;2023-09-12T13:15:22;1.35;;;1.25;;
11986;SDS011;6053;51.382;6.768;2023-09-12T13:17:55;3.23;;;1.90;;
11986;SDS011;6053;51.382;6.768;2023-09-12T13:20:30;2.20;;;1.33;;
11986;SDS011;6053;51.382;6.768;2023-09-12T13:23:00;3.38;;;1.77;;
11986;SDS011;6053;51.382;6.768;2023-09-12T13:25:29;1.42;;;1.38;;
11986;SDS011;6053;51.382;6.768;2023-09-12T13:27:58;2.33;;;1.55;;
11986;SDS011;6053;51.382;6.768;2023-09-12T13:30:29;1.67;;;1.57;;
11986;SDS011;6053;51.382;6.768;2023-09-12T13:32:57;2.23;;;1.40;;
11986;SDS011;6053;51.382;6.768;2023-09-12T13:35:26;2.17;;;1.50;;
11986;SDS011;6053;51.382;6.768;2023-09-12T13:37:55;1.50;;;1.40;;
11986;SDS011;6053;51.382;6.768;2023-09-12T13:40:30;1.88;;;1.63;;
11986;SDS011;6053;51.382;6.768;2023-09-12T13:42:58;1.23;;;1.23;;
11986;SDS011;6053;51.382;6.768;2023-09-12T13:45:27;1.38;;;1.27;;
11986;SDS011;6053;51.382;6.768;2023-09-12T13:47:55;1.50;;;1.38;;
11986;SDS011;6053;51.382;6.768;2023-09-12T13:50:24;1.58;;;1.48;;
11986;SDS011;6053;51.382;6.768;2023-09-12T13:52:54;2.67;;;1.90;;
11986;SDS011;6053;51.382;6.768;2023-09-12T13:55:27;2.45;;;2.00;;
11986;SDS011;6053;51.382;6.768;2023-09-12T13:57:55;4.35;;;2.22;;
11986;SDS011;6053;51.382;6.768;2023-09-12T14:00:29;3.47;;;2.22;;
11986;SDS011;6053;51.382;6.768;2023-09-12T14:03:05;1.30;;;1.20;;
11986;SDS011;6053;51.382;6.768;2023-09-12T14:05:33;2.58;;;2.05;;
11986;SDS011;6053;51.382;6.768;2023-09-12T14:08:07;2.30;;;1.73;;
11986;SDS011;6053;51.382;6.768;2023-09-12T14:10:43;1.70;;;1.60;;
11986;SDS011;6053;51.382;6.768;2023-09-12T14:13:12;4.63;;;2.70;;
11986;SDS011;6053;51.382;6.768;2023-09-12T14:15:47;2.90;;;2.08;;
11986;SDS011;6053;51.382;6.768;2023-09-12T14:18:17;4.00;;;2.92;;
11986;SDS011;6053;51.382;6.768;2023-09-12T14:20:47;6.10;;;3.35;;
11986;SDS011;6053;51.382;6.768;2023-09-12T14:23:21;4.50;;;3.00;;
11986;SDS011;6053;51.382;6.768;2023-09-12T14:25:52;3.30;;;1.80;;
11986;SDS011;6053;51.382;6.768;2023-09-12T14:28:22;1.73;;;1.63;;
11986;SDS011;6053;51.382;6.768;2023-09-12T14:30:58;5.10;;;3.70;;
11986;SDS011;6053;51.382;6.768;2023-09-12T14:33:26;6.05;;;3.47;;
11986;SDS011;6053;51.382;6.768;2023-09-12T14:35:58;5.53;;;3.22;;
11986;SDS011;6053;51.382;6.768;2023-09-12T14:38:27;2.60;;;2.40;;
11986;SDS011;6053;51.382;6.768;2023-09-12T14:40:57;3.30;;;2.50;;
11986;SDS011;6053;51.382;6.768;2023-09-12T14:43:31;1.87;;;1.77;;
11986;SDS011;6053;51.382;6.768;2023-09-12T14:46:02;4.65;;;3.08;;
11986;SDS011;6053;51.382;6.768;2023-09-12T14:48:32;4.20;;;3.55;;
11986;SDS011;6053;51.382;6.768;2023-09-12T14:51:04;3.40;;;2.50;;
11986;SDS011;6053;51.382;6.768;2023-09-12T14:53:32;2.20;;;1.70;;
11986;SDS011;6053;51.382;6.768;2023-09-12T14:56:02;1.77;;;1.67;;
11986;SDS011;6053;51.382;6.768;2023-09-12T14:58:31;4.43;;;2.78;;
11986;SDS011;6053;51.382;6.768;2023-09-12T15:01:09;3.28;;;2.63;;
11986;SDS011;6053;51.382;6.768;2023-09-12T15:03:40;3.70;;;2.70;;
11986;SDS011;6053;51.382;6.768;2023-09-12T15:06:12;1.70;;;1.60;;
11986;SDS011;6053;51.382;6.768;2023-09-12T15:08:44;2.17;;;1.77;;
11986;SDS011;6053;51.382;6.768;2023-09-12T15:11:17;1.73;;;1.63;;
11986;SDS011;6053;51.382;6.768;2023-09-12T15:13:45;2.97;;;2.05;;
11986;SDS011;6053;51.382;6.768;2023-09-12T15:16:14;2.25;;;2.05;;
11986;SDS011;6053;51.382;6.768;2023-09-12T15:18:42;2.42;;;1.85;;
11986;SDS011;6053;51.382;6.768;2023-09-12T15:21:11;3.80;;;2.30;;
11986;SDS011;6053;51.382;6.768;2023-09-12T15:23:42;3.00;;;1.80;;
11986;SDS011;6053;51.382;6.768;2023-09-12T15:26:11;3.40;;;2.00;;
11986;SDS011;6053;51.382;6.768;2023-09-12T15:28:41;2.92;;;2.08;;
11986;SDS011;6053;51.382;6.768;2023-09-12T15:31:09;1.83;;;1.73;;
11986;SDS011;6053;51.382;6.768;2023-09-12T15:33:38;2.10;;;1.85;;
11986;SDS011;6053;51.382;6.768;2023-09-12T15:36:10;2.08;;;1.65;;
11986;SDS011;6053;51.382;6.768;2023-09-12T15:38:38;2.57;;;2.00;;
11986;SDS011;6053;51.382;6.768;2023-09-12T15:41:10;2.55;;;2.22;;